Terminal Aerodrome Forecast
Issued by NWS

Home | Current Version | Previous Version | Text Only | Print | Product List | Glossary Off
Versions: 1 2 3 4 5 6 7 8 9 10 11 12 13 14 15 16 17 18 19 20 21 22 23

000
FTUS43 KABR 191005 AAA
TAFPIR
TAF AMD
KPIR 191005Z 1910/2006 14014KT P6SM SCT090 BKN150 WS020/19045KT
     FM191500 16016G24KT P6SM SCT120
     FM192200 21015G23KT P6SM VCTS BKN050CB BKN150
      TEMPO 1922/1924 TSRA BKN030CB OVC080
     FM200000 28017G24KT P6SM VCSH SCT090 BKN200=

USA.gov is the U.S. government's official web portal to all federal, state and local government web resources and services.